sensor_id;sensor_type;location;lat;lon;timestamp;temperature;humidity
2447;DHT22;26430;48.818;9.244;2024-02-26T00:01:39;11.50;99.80
2447;DHT22;26430;48.818;9.244;2024-02-26T00:04:05;11.60;99.70
2447;DHT22;26430;48.818;9.244;2024-02-26T00:06:30;11.50;99.70
2447;DHT22;26430;48.818;9.244;2024-02-26T00:08:56;11.50;99.70
2447;DHT22;26430;48.818;9.244;2024-02-26T00:11:22;11.50;99.90
2447;DHT22;26430;48.818;9.244;2024-02-26T00:13:48;11.40;99.70
2447;DHT22;26430;48.818;9.244;2024-02-26T00:16:13;11.50;99.90
2447;DHT22;26430;48.818;9.244;2024-02-26T00:18:39;11.50;99.90
2447;DHT22;26430;48.818;9.244;2024-02-26T00:21:05;11.50;99.90
2447;DHT22;26430;48.818;9.244;2024-02-26T00:23:30;11.50;99.90
2447;DHT22;26430;48.818;9.244;2024-02-26T00:25:56;11.50;99.90
2447;DHT22;26430;48.818;9.244;2024-02-26T00:28:21;11.50;99.90
2447;DHT22;26430;48.818;9.244;2024-02-26T00:30:47;11.50;99.90
2447;DHT22;26430;48.818;9.244;2024-02-26T00:33:16;11.40;99.90
2447;DHT22;26430;48.818;9.244;2024-02-26T00:35:42;11.40;99.90
2447;DHT22;26430;48.818;9.244;2024-02-26T00:38:07;11.40;99.90
2447;DHT22;26430;48.818;9.244;2024-02-26T00:40:33;11.40;99.90
2447;DHT22;26430;48.818;9.244;2024-02-26T00:42:58;11.40;99.90
2447;DHT22;26430;48.818;9.244;2024-02-26T00:45:24;11.40;99.90
2447;DHT22;26430;48.818;9.244;2024-02-26T00:47:49;11.30;99.90
2447;DHT22;26430;48.818;9.244;2024-02-26T00:50:15;11.30;99.80
2447;DHT22;26430;48.818;9.244;2024-02-26T00:52:40;11.40;99.90
2447;DHT22;26430;48.818;9.244;2024-02-26T00:55:07;11.40;99.90
2447;DHT22;26430;48.818;9.244;2024-02-26T00:57:33;11.30;99.90
2447;DHT22;26430;48.818;9.244;2024-02-26T00:59:58;11.30;99.90
2447;DHT22;26430;48.818;9.244;2024-02-26T01:02:24;11.40;99.90
2447;DHT22;26430;48.818;9.244;2024-02-26T01:04:50;11.30;99.80
2447;DHT22;26430;48.818;9.244;2024-02-26T01:07:15;11.30;99.80
2447;DHT22;26430;48.818;9.244;2024-02-26T01:09:42;11.40;99.90
2447;DHT22;26430;48.818;9.244;2024-02-26T01:12:08;11.50;99.90
2447;DHT22;26430;48.818;9.244;2024-02-26T01:14:34;11.50;99.90
2447;DHT22;26430;48.818;9.244;2024-02-26T01:16:59;11.40;99.90
2447;DHT22;26430;48.818;9.244;2024-02-26T01:19:25;11.40;99.70
2447;DHT22;26430;48.818;9.244;2024-02-26T01:21:50;11.40;99.70
2447;DHT22;26430;48.818;9.244;2024-02-26T01:24:16;11.40;99.90
2447;DHT22;26430;48.818;9.244;2024-02-26T01:26:42;11.30;99.90
2447;DHT22;26430;48.818;9.244;2024-02-26T01:29:07;11.40;99.90
2447;DHT22;26430;48.818;9.244;2024-02-26T01:31:33;11.40;99.90
2447;DHT22;26430;48.818;9.244;2024-02-26T01:33:58;11.40;99.80
2447;DHT22;26430;48.818;9.244;2024-02-26T01:36:24;11.30;99.70
2447;DHT22;26430;48.818;9.244;2024-02-26T01:38:50;11.40;99.70
2447;DHT22;26430;48.818;9.244;2024-02-26T01:41:16;11.40;99.90
2447;DHT22;26430;48.818;9.244;2024-02-26T01:43:42;11.40;99.90
2447;DHT22;26430;48.818;9.244;2024-02-26T01:46:11;11.40;99.70
2447;DHT22;26430;48.818;9.244;2024-02-26T01:48:40;11.40;99.70
2447;DHT22;26430;48.818;9.244;2024-02-26T01:51:05;11.30;99.60
2447;DHT22;26430;48.818;9.244;2024-02-26T01:53:31;11.40;99.90
2447;DHT22;26430;48.818;9.244;2024-02-26T01:55:58;11.30;99.90
2447;DHT22;26430;48.818;9.244;2024-02-26T01:58:23;11.30;99.90
2447;DHT22;26430;48.818;9.244;2024-02-26T02:00:49;11.40;99.80
2447;DHT22;26430;48.818;9.244;2024-02-26T02:03:15;11.40;99.50
2447;DHT22;26430;48.818;9.244;2024-02-26T02:05:41;11.30;99.80
2447;DHT22;26430;48.818;9.244;2024-02-26T02:08:10;11.30;99.70
2447;DHT22;26430;48.818;9.244;2024-02-26T02:10:37;11.30;99.90
2447;DHT22;26430;48.818;9.244;2024-02-26T02:13:03;11.40;99.80
2447;DHT22;26430;48.818;9.244;2024-02-26T02:15:29;11.30;99.80
2447;DHT22;26430;48.818;9.244;2024-02-26T02:17:54;11.30;99.80
2447;DHT22;26430;48.818;9.244;2024-02-26T02:20:33;11.20;99.50
2447;DHT22;26430;48.818;9.244;2024-02-26T02:22:59;11.20;99.40
2447;DHT22;26430;48.818;9.244;2024-02-26T02:25:25;11.20;99.40
2447;DHT22;26430;48.818;9.244;2024-02-26T02:27:53;11.30;99.70
2447;DHT22;26430;48.818;9.244;2024-02-26T02:30:20;11.30;99.60
2447;DHT22;26430;48.818;9.244;2024-02-26T02:32:46;11.40;99.80
2447;DHT22;26430;48.818;9.244;2024-02-26T02:35:12;11.40;99.80
2447;DHT22;26430;48.818;9.244;2024-02-26T02:37:37;11.30;99.90
2447;DHT22;26430;48.818;9.244;2024-02-26T02:40:03;11.30;99.90
2447;DHT22;26430;48.818;9.244;2024-02-26T02:42:30;11.30;99.90
2447;DHT22;26430;48.818;9.244;2024-02-26T02:44:56;11.40;99.90
2447;DHT22;26430;48.818;9.244;2024-02-26T02:47:21;11.50;99.90
2447;DHT22;26430;48.818;9.244;2024-02-26T02:49:47;11.50;99.90
2447;DHT22;26430;48.818;9.244;2024-02-26T02:52:12;11.50;99.90
2447;DHT22;26430;48.818;9.244;2024-02-26T02:54:38;11.50;99.90
2447;DHT22;26430;48.818;9.244;2024-02-26T02:57:05;11.40;99.90
2447;DHT22;26430;48.818;9.244;2024-02-26T02:59:31;11.30;99.90
2447;DHT22;26430;48.818;9.244;2024-02-26T03:01:57;11.20;99.90
2447;DHT22;26430;48.818;9.244;2024-02-26T03:04:22;11.30;99.90
2447;DHT22;26430;48.818;9.244;2024-02-26T03:06:48;11.20;99.90
2447;DHT22;26430;48.818;9.244;2024-02-26T03:09:13;11.20;99.90
2447;DHT22;26430;48.818;9.244;2024-02-26T03:11:39;11.10;99.90
2447;DHT22;26430;48.818;9.244;2024-02-26T03:14:05;11.10;99.90
2447;DHT22;26430;48.818;9.244;2024-02-26T03:16:32;11.20;99.90
2447;DHT22;26430;48.818;9.244;2024-02-26T03:18:57;11.30;99.90
2447;DHT22;26430;48.818;9.244;2024-02-26T03:21:25;11.30;99.90
2447;DHT22;26430;48.818;9.244;2024-02-26T03:23:50;11.30;99.90
2447;DHT22;26430;48.818;9.244;2024-02-26T03:26:16;11.30;99.90
2447;DHT22;26430;48.818;9.244;2024-02-26T03:28:42;11.20;99.90
2447;DHT22;26430;48.818;9.244;2024-02-26T03:31:07;11.30;99.90
2447;DHT22;26430;48.818;9.244;2024-02-26T03:33:34;11.30;99.90
2447;DHT22;26430;48.818;9.244;2024-02-26T03:36:00;11.30;99.90
2447;DHT22;26430;48.818;9.244;2024-02-26T03:38:25;11.20;99.90
2447;DHT22;26430;48.818;9.244;2024-02-26T03:40:51;11.20;99.90
2447;DHT22;26430;48.818;9.244;2024-02-26T03:43:17;11.20;99.90
2447;DHT22;26430;48.818;9.244;2024-02-26T03:45:42;11.20;99.90
2447;DHT22;26430;48.818;9.244;2024-02-26T03:48:08;11.20;99.90
2447;DHT22;26430;48.818;9.244;2024-02-26T03:50:34;11.20;99.90
2447;DHT22;26430;48.818;9.244;2024-02-26T03:53:00;11.20;99.90
2447;DHT22;26430;48.818;9.244;2024-02-26T03:55:25;11.20;99.90
2447;DHT22;26430;48.818;9.244;2024-02-26T03:57:51;11.20;99.90
2447;DHT22;26430;48.818;9.244;2024-02-26T04:00:18;11.20;99.90
2447;DHT22;26430;48.818;9.244;2024-02-26T04:02:43;11.20;99.90
2447;DHT22;26430;48.818;9.244;2024-02-26T04:05:10;11.20;99.90
2447;DHT22;26430;48.818;9.244;2024-02-26T04:07:35;11.20;99.90
2447;DHT22;26430;48.818;9.244;2024-02-26T04:10:01;11.20;99.90
2447;DHT22;26430;48.818;9.244;2024-02-26T04:12:30;11.20;99.90
2447;DHT22;26430;48.818;9.244;2024-02-26T04:14:56;11.20;99.90
2447;DHT22;26430;48.818;9.244;2024-02-26T04:17:21;11.20;99.90
2447;DHT22;26430;48.818;9.244;2024-02-26T04:19:47;11.20;99.90
2447;DHT22;26430;48.818;9.244;2024-02-26T04:22:12;11.20;99.90
2447;DHT22;26430;48.818;9.244;2024-02-26T04:24:38;11.10;99.90
2447;DHT22;26430;48.818;9.244;2024-02-26T04:27:03;11.10;99.90
2447;DHT22;26430;48.818;9.244;2024-02-26T04:29:29;11.10;99.90
2447;DHT22;26430;48.818;9.244;2024-02-26T04:31:54;11.10;99.90
2447;DHT22;26430;48.818;9.244;2024-02-26T04:34:20;11.10;99.90
2447;DHT22;26430;48.818;9.244;2024-02-26T04:36:46;11.10;99.90
2447;DHT22;26430;48.818;9.244;2024-02-26T04:39:13;11.20;99.90
2447;DHT22;26430;48.818;9.244;2024-02-26T04:41:39;11.20;99.90
2447;DHT22;26430;48.818;9.244;2024-02-26T04:44:04;11.20;99.90
2447;DHT22;26430;48.818;9.244;2024-02-26T04:46:30;11.10;99.90
2447;DHT22;26430;48.818;9.244;2024-02-26T04:48:56;11.20;99.90
2447;DHT22;26430;48.818;9.244;2024-02-26T04:51:21;11.20;99.90
2447;DHT22;26430;48.818;9.244;2024-02-26T04:53:47;11.20;99.90
2447;DHT22;26430;48.818;9.244;2024-02-26T04:56:12;11.20;99.90
2447;DHT22;26430;48.818;9.244;2024-02-26T04:58:38;11.30;99.90
2447;DHT22;26430;48.818;9.244;2024-02-26T05:01:05;11.30;99.90
2447;DHT22;26430;48.818;9.244;2024-02-26T05:03:30;11.30;99.70
2447;DHT22;26430;48.818;9.244;2024-02-26T05:05:56;11.20;99.80
2447;DHT22;26430;48.818;9.244;2024-02-26T05:08:23;11.30;99.90
2447;DHT22;26430;48.818;9.244;2024-02-26T05:10:48;11.40;99.90
2447;DHT22;26430;48.818;9.244;2024-02-26T05:13:14;11.40;99.90
2447;DHT22;26430;48.818;9.244;2024-02-26T05:15:41;11.50;99.90
2447;DHT22;26430;48.818;9.244;2024-02-26T05:18:07;11.40;99.90
2447;DHT22;26430;48.818;9.244;2024-02-26T05:20:33;11.50;99.90
2447;DHT22;26430;48.818;9.244;2024-02-26T05:23:00;11.50;99.90
2447;DHT22;26430;48.818;9.244;2024-02-26T05:25:26;11.50;99.90
2447;DHT22;26430;48.818;9.244;2024-02-26T05:27:51;11.50;99.70
2447;DHT22;26430;48.818;9.244;2024-02-26T05:30:17;11.50;99.80
2447;DHT22;26430;48.818;9.244;2024-02-26T05:32:43;11.50;99.80
2447;DHT22;26430;48.818;9.244;2024-02-26T05:35:08;11.50;99.80
2447;DHT22;26430;48.818;9.244;2024-02-26T05:37:34;11.50;99.70
2447;DHT22;26430;48.818;9.244;2024-02-26T05:39:59;11.60;99.90
2447;DHT22;26430;48.818;9.244;2024-02-26T05:42:25;11.50;99.90
2447;DHT22;26430;48.818;9.244;2024-02-26T05:44:51;11.50;99.90
2447;DHT22;26430;48.818;9.244;2024-02-26T05:47:16;11.50;99.90
2447;DHT22;26430;48.818;9.244;2024-02-26T05:49:43;11.50;99.90
2447;DHT22;26430;48.818;9.244;2024-02-26T05:52:08;11.50;99.90
2447;DHT22;26430;48.818;9.244;2024-02-26T05:54:34;11.50;99.90
2447;DHT22;26430;48.818;9.244;2024-02-26T05:56:59;11.60;99.90
2447;DHT22;26430;48.818;9.244;2024-02-26T05:59:25;11.60;99.90
2447;DHT22;26430;48.818;9.244;2024-02-26T06:01:50;11.50;99.90
2447;DHT22;26430;48.818;9.244;2024-02-26T06:04:16;11.50;99.90
2447;DHT22;26430;48.818;9.244;2024-02-26T06:06:45;11.50;99.90
2447;DHT22;26430;48.818;9.244;2024-02-26T06:09:13;11.50;99.90
2447;DHT22;26430;48.818;9.244;2024-02-26T06:11:39;11.40;99.90
2447;DHT22;26430;48.818;9.244;2024-02-26T06:14:05;11.30;99.90
2447;DHT22;26430;48.818;9.244;2024-02-26T06:16:31;11.30;99.90
2447;DHT22;26430;48.818;9.244;2024-02-26T06:18:56;11.20;99.90
2447;DHT22;26430;48.818;9.244;2024-02-26T06:21:22;11.30;99.90
2447;DHT22;26430;48.818;9.244;2024-02-26T06:23:48;11.10;99.90
2447;DHT22;26430;48.818;9.244;2024-02-26T06:26:13;11.20;99.90
2447;DHT22;26430;48.818;9.244;2024-02-26T06:28:39;11.20;99.90
2447;DHT22;26430;48.818;9.244;2024-02-26T06:31:06;11.10;99.90
2447;DHT22;26430;48.818;9.244;2024-02-26T06:33:32;11.10;99.90
2447;DHT22;26430;48.818;9.244;2024-02-26T06:35:57;11.10;99.90
2447;DHT22;26430;48.818;9.244;2024-02-26T06:38:23;11.10;99.90
2447;DHT22;26430;48.818;9.244;2024-02-26T06:40:48;11.10;99.90
2447;DHT22;26430;48.818;9.244;2024-02-26T06:43:14;11.10;99.90
2447;DHT22;26430;48.818;9.244;2024-02-26T06:45:40;11.10;99.90
2447;DHT22;26430;48.818;9.244;2024-02-26T06:48:06;11.10;99.90
2447;DHT22;26430;48.818;9.244;2024-02-26T06:50:31;11.00;99.90
2447;DHT22;26430;48.818;9.244;2024-02-26T06:52:57;11.00;99.90
2447;DHT22;26430;48.818;9.244;2024-02-26T06:55:22;11.00;99.90
2447;DHT22;26430;48.818;9.244;2024-02-26T06:57:48;11.10;99.90
2447;DHT22;26430;48.818;9.244;2024-02-26T07:00:14;11.10;99.90
2447;DHT22;26430;48.818;9.244;2024-02-26T07:02:42;11.10;99.90
2447;DHT22;26430;48.818;9.244;2024-02-26T07:05:08;11.00;99.90
2447;DHT22;26430;48.818;9.244;2024-02-26T07:07:33;11.10;99.90
2447;DHT22;26430;48.818;9.244;2024-02-26T07:09:59;11.20;99.90
2447;DHT22;26430;48.818;9.244;2024-02-26T07:12:25;11.20;99.90
2447;DHT22;26430;48.818;9.244;2024-02-26T07:14:51;11.10;99.90
2447;DHT22;26430;48.818;9.244;2024-02-26T07:17:17;11.10;99.90
2447;DHT22;26430;48.818;9.244;2024-02-26T07:19:43;11.10;99.90
2447;DHT22;26430;48.818;9.244;2024-02-26T07:22:09;11.10;99.90
2447;DHT22;26430;48.818;9.244;2024-02-26T07:24:34;11.10;99.90
2447;DHT22;26430;48.818;9.244;2024-02-26T07:27:00;11.10;99.90
2447;DHT22;26430;48.818;9.244;2024-02-26T07:29:25;11.10;99.90
2447;DHT22;26430;48.818;9.244;2024-02-26T07:31:51;11.20;99.90
2447;DHT22;26430;48.818;9.244;2024-02-26T07:34:16;11.20;99.90
2447;DHT22;26430;48.818;9.244;2024-02-26T07:36:42;11.20;99.90
2447;DHT22;26430;48.818;9.244;2024-02-26T07:39:08;11.20;99.90
2447;DHT22;26430;48.818;9.244;2024-02-26T07:41:33;11.20;99.90
2447;DHT22;26430;48.818;9.244;2024-02-26T07:43:59;11.20;99.90
2447;DHT22;26430;48.818;9.244;2024-02-26T07:46:25;11.20;99.90
2447;DHT22;26430;48.818;9.244;2024-02-26T07:48:50;11.20;99.90
2447;DHT22;26430;48.818;9.244;2024-02-26T07:51:16;11.30;99.90
2447;DHT22;26430;48.818;9.244;2024-02-26T07:53:42;11.20;99.90
2447;DHT22;26430;48.818;9.244;2024-02-26T07:56:09;11.20;99.90
2447;DHT22;26430;48.818;9.244;2024-02-26T07:58:35;11.30;99.90
2447;DHT22;26430;48.818;9.244;2024-02-26T08:01:01;11.30;99.90
2447;DHT22;26430;48.818;9.244;2024-02-26T08:03:26;11.30;99.90
2447;DHT22;26430;48.818;9.244;2024-02-26T08:05:52;11.40;99.90
2447;DHT22;26430;48.818;9.244;2024-02-26T08:08:18;11.40;99.90
2447;DHT22;26430;48.818;9.244;2024-02-26T08:10:43;11.40;99.90
2447;DHT22;26430;48.818;9.244;2024-02-26T08:13:09;11.40;99.90
2447;DHT22;26430;48.818;9.244;2024-02-26T08:15:35;11.40;99.90
2447;DHT22;26430;48.818;9.244;2024-02-26T08:18:02;11.50;99.90
2447;DHT22;26430;48.818;9.244;2024-02-26T08:20:29;11.50;99.90
2447;DHT22;26430;48.818;9.244;2024-02-26T08:22:55;11.50;99.90
2447;DHT22;26430;48.818;9.244;2024-02-26T08:25:20;11.50;99.90
2447;DHT22;26430;48.818;9.244;2024-02-26T08:27:46;11.50;99.90
2447;DHT22;26430;48.818;9.244;2024-02-26T08:30:13;11.50;99.90
2447;DHT22;26430;48.818;9.244;2024-02-26T08:32:45;11.60;99.90
2447;DHT22;26430;48.818;9.244;2024-02-26T08:35:11;11.60;99.90
2447;DHT22;26430;48.818;9.244;2024-02-26T08:37:36;11.60;99.90
2447;DHT22;26430;48.818;9.244;2024-02-26T08:40:02;11.50;99.90
2447;DHT22;26430;48.818;9.244;2024-02-26T08:42:29;11.50;99.90
2447;DHT22;26430;48.818;9.244;2024-02-26T08:44:55;11.60;99.90
2447;DHT22;26430;48.818;9.244;2024-02-26T08:47:20;11.70;99.90
2447;DHT22;26430;48.818;9.244;2024-02-26T08:49:46;11.70;99.90
2447;DHT22;26430;48.818;9.244;2024-02-26T08:52:11;11.60;99.90
2447;DHT22;26430;48.818;9.244;2024-02-26T08:54:37;11.50;99.90
2447;DHT22;26430;48.818;9.244;2024-02-26T08:57:03;11.60;99.90
2447;DHT22;26430;48.818;9.244;2024-02-26T08:59:29;11.60;99.90
2447;DHT22;26430;48.818;9.244;2024-02-26T09:01:54;11.60;99.90
2447;DHT22;26430;48.818;9.244;2024-02-26T09:04:20;11.60;99.90
2447;DHT22;26430;48.818;9.244;2024-02-26T09:06:46;11.60;99.90
2447;DHT22;26430;48.818;9.244;2024-02-26T09:09:11;11.60;99.90
2447;DHT22;26430;48.818;9.244;2024-02-26T09:11:37;11.60;99.90
2447;DHT22;26430;48.818;9.244;2024-02-26T09:14:03;11.70;99.90
2447;DHT22;26430;48.818;9.244;2024-02-26T09:16:31;11.60;99.90
2447;DHT22;26430;48.818;9.244;2024-02-26T09:18:57;11.60;99.90
2447;DHT22;26430;48.818;9.244;2024-02-26T09:21:22;11.60;99.90
2447;DHT22;26430;48.818;9.244;2024-02-26T09:23:50;11.60;99.90
2447;DHT22;26430;48.818;9.244;2024-02-26T09:26:16;11.60;99.90
2447;DHT22;26430;48.818;9.244;2024-02-26T09:28:42;11.60;99.90
2447;DHT22;26430;48.818;9.244;2024-02-26T09:31:07;11.70;99.90
2447;DHT22;26430;48.818;9.244;2024-02-26T09:33:33;11.70;99.90
2447;DHT22;26430;48.818;9.244;2024-02-26T09:35:59;11.80;99.90
2447;DHT22;26430;48.818;9.244;2024-02-26T09:38:26;11.80;99.90
2447;DHT22;26430;48.818;9.244;2024-02-26T09:40:52;11.80;99.90
2447;DHT22;26430;48.818;9.244;2024-02-26T09:43:21;11.90;99.90
2447;DHT22;26430;48.818;9.244;2024-02-26T09:45:50;11.90;99.90
2447;DHT22;26430;48.818;9.244;2024-02-26T09:48:17;11.80;99.90
2447;DHT22;26430;48.818;9.244;2024-02-26T09:50:43;11.80;99.90
2447;DHT22;26430;48.818;9.244;2024-02-26T09:53:10;11.80;99.90
2447;DHT22;26430;48.818;9.244;2024-02-26T09:55:37;11.90;99.90
2447;DHT22;26430;48.818;9.244;2024-02-26T09:58:05;11.90;99.90
2447;DHT22;26430;48.818;9.244;2024-02-26T10:00:31;11.90;99.90
2447;DHT22;26430;48.818;9.244;2024-02-26T10:03:04;11.90;99.90
2447;DHT22;26430;48.818;9.244;2024-02-26T10:05:32;11.90;99.90
2447;DHT22;26430;48.818;9.244;2024-02-26T10:07:59;11.90;99.90
2447;DHT22;26430;48.818;9.244;2024-02-26T10:10:28;11.90;99.90
2447;DHT22;26430;48.818;9.244;2024-02-26T10:12:54;12.00;99.90
2447;DHT22;26430;48.818;9.244;2024-02-26T10:15:20;12.10;99.90
2447;DHT22;26430;48.818;9.244;2024-02-26T10:17:45;12.20;99.90
2447;DHT22;26430;48.818;9.244;2024-02-26T10:20:17;12.30;99.90
2447;DHT22;26430;48.818;9.244;2024-02-26T10:22:46;12.40;99.90
2447;DHT22;26430;48.818;9.244;2024-02-26T10:25:13;12.50;99.90
2447;DHT22;26430;48.818;9.244;2024-02-26T10:27:42;12.60;99.90
2447;DHT22;26430;48.818;9.244;2024-02-26T10:32:45;12.70;99.90
2447;DHT22;26430;48.818;9.244;2024-02-26T10:35:12;12.80;99.90
2447;DHT22;26430;48.818;9.244;2024-02-26T10:37:40;12.90;99.90
2447;DHT22;26430;48.818;9.244;2024-02-26T10:40:06;12.90;99.90
2447;DHT22;26430;48.818;9.244;2024-02-26T10:42:32;13.00;99.90
2447;DHT22;26430;48.818;9.244;2024-02-26T10:44:58;13.10;99.90
2447;DHT22;26430;48.818;9.244;2024-02-26T10:47:24;13.10;99.90
2447;DHT22;26430;48.818;9.244;2024-02-26T10:49:50;13.20;99.90
2447;DHT22;26430;48.818;9.244;2024-02-26T10:52:19;13.20;99.90
2447;DHT22;26430;48.818;9.244;2024-02-26T10:54:47;13.20;99.90
2447;DHT22;26430;48.818;9.244;2024-02-26T10:57:13;13.20;99.90
2447;DHT22;26430;48.818;9.244;2024-02-26T10:59:42;13.30;99.90
2447;DHT22;26430;48.818;9.244;2024-02-26T11:02:10;13.30;99.90
2447;DHT22;26430;48.818;9.244;2024-02-26T11:04:37;13.30;99.90
2447;DHT22;26430;48.818;9.244;2024-02-26T11:07:04;13.30;99.90
2447;DHT22;26430;48.818;9.244;2024-02-26T11:09:31;13.40;99.90
2447;DHT22;26430;48.818;9.244;2024-02-26T11:11:58;13.40;99.90
2447;DHT22;26430;48.818;9.244;2024-02-26T11:14:26;13.40;99.90
2447;DHT22;26430;48.818;9.244;2024-02-26T11:16:52;13.50;99.90
2447;DHT22;26430;48.818;9.244;2024-02-26T11:19:18;13.50;99.90
2447;DHT22;26430;48.818;9.244;2024-02-26T11:21:44;13.50;99.90
2447;DHT22;26430;48.818;9.244;2024-02-26T11:24:13;13.60;99.90
2447;DHT22;26430;48.818;9.244;2024-02-26T11:26:50;13.60;99.90
2447;DHT22;26430;48.818;9.244;2024-02-26T11:29:20;13.70;99.90
2447;DHT22;26430;48.818;9.244;2024-02-26T11:31:47;13.70;99.90
2447;DHT22;26430;48.818;9.244;2024-02-26T11:34:13;13.70;99.90
2447;DHT22;26430;48.818;9.244;2024-02-26T11:36:38;13.70;99.90
2447;DHT22;26430;48.818;9.244;2024-02-26T11:39:05;13.70;99.90
2447;DHT22;26430;48.818;9.244;2024-02-26T11:41:31;13.70;99.90
2447;DHT22;26430;48.818;9.244;2024-02-26T11:43:59;13.70;99.90
2447;DHT22;26430;48.818;9.244;2024-02-26T11:46:29;13.80;99.90
2447;DHT22;26430;48.818;9.244;2024-02-26T11:49:03;13.80;99.90
2447;DHT22;26430;48.818;9.244;2024-02-26T11:51:51;13.80;99.90
2447;DHT22;26430;48.818;9.244;2024-02-26T11:57:38;13.80;99.90
2447;DHT22;26430;48.818;9.244;2024-02-26T12:03:05;13.80;99.90
2447;DHT22;26430;48.818;9.244;2024-02-26T12:05:34;13.80;99.90
2447;DHT22;26430;48.818;9.244;2024-02-26T12:08:07;13.80;99.90
2447;DHT22;26430;48.818;9.244;2024-02-26T12:13:16;13.90;99.90
2447;DHT22;26430;48.818;9.244;2024-02-26T12:18:20;13.90;99.90
2447;DHT22;26430;48.818;9.244;2024-02-26T12:20:46;13.90;99.90
2447;DHT22;26430;48.818;9.244;2024-02-26T12:23:16;13.90;99.90
2447;DHT22;26430;48.818;9.244;2024-02-26T12:25:45;13.90;99.90
2447;DHT22;26430;48.818;9.244;2024-02-26T12:28:14;13.90;99.90
2447;DHT22;26430;48.818;9.244;2024-02-26T12:30:40;13.90;99.90
2447;DHT22;26430;48.818;9.244;2024-02-26T12:33:05;13.90;99.90
2447;DHT22;26430;48.818;9.244;2024-02-26T12:35:34;14.00;99.90
2447;DHT22;26430;48.818;9.244;2024-02-26T12:38:01;14.00;99.90
2447;DHT22;26430;48.818;9.244;2024-02-26T12:40:28;14.00;99.90
2447;DHT22;26430;48.818;9.244;2024-02-26T12:42:54;14.00;99.90
2447;DHT22;26430;48.818;9.244;2024-02-26T12:45:20;14.00;99.90
2447;DHT22;26430;48.818;9.244;2024-02-26T12:47:46;14.00;99.90
2447;DHT22;26430;48.818;9.244;2024-02-26T12:50:13;14.00;99.90
2447;DHT22;26430;48.818;9.244;2024-02-26T12:52:43;14.00;99.90
2447;DHT22;26430;48.818;9.244;2024-02-26T12:55:10;14.00;99.90
2447;DHT22;26430;48.818;9.244;2024-02-26T12:57:38;14.00;99.90
2447;DHT22;26430;48.818;9.244;2024-02-26T13:00:05;14.10;99.90
2447;DHT22;26430;48.818;9.244;2024-02-26T13:02:33;14.10;99.90
2447;DHT22;26430;48.818;9.244;2024-02-26T13:04:59;14.10;99.90
2447;DHT22;26430;48.818;9.244;2024-02-26T13:07:27;14.10;99.90
2447;DHT22;26430;48.818;9.244;2024-02-26T13:09:52;14.10;99.90
2447;DHT22;26430;48.818;9.244;2024-02-26T13:12:18;14.10;99.90
2447;DHT22;26430;48.818;9.244;2024-02-26T13:14:44;14.10;99.90
2447;DHT22;26430;48.818;9.244;2024-02-26T13:17:10;14.10;99.90
2447;DHT22;26430;48.818;9.244;2024-02-26T13:19:35;14.10;99.90
2447;DHT22;26430;48.818;9.244;2024-02-26T13:22:07;14.10;99.90
2447;DHT22;26430;48.818;9.244;2024-02-26T13:24:34;14.20;99.90
2447;DHT22;26430;48.818;9.244;2024-02-26T13:26:59;14.20;99.90
2447;DHT22;26430;48.818;9.244;2024-02-26T13:29:26;14.20;99.90
2447;DHT22;26430;48.818;9.244;2024-02-26T13:31:58;14.20;99.90
2447;DHT22;26430;48.818;9.244;2024-02-26T13:34:25;14.20;99.90
2447;DHT22;26430;48.818;9.244;2024-02-26T13:36:52;14.20;99.90
2447;DHT22;26430;48.818;9.244;2024-02-26T13:39:25;14.20;99.90
2447;DHT22;26430;48.818;9.244;2024-02-26T13:41:52;14.20;99.90
2447;DHT22;26430;48.818;9.244;2024-02-26T13:44:21;14.20;99.90
2447;DHT22;26430;48.818;9.244;2024-02-26T13:46:47;14.20;99.90
2447;DHT22;26430;48.818;9.244;2024-02-26T13:49:13;14.20;99.90
2447;DHT22;26430;48.818;9.244;2024-02-26T13:51:39;14.20;99.90
2447;DHT22;26430;48.818;9.244;2024-02-26T13:54:05;14.20;99.90
2447;DHT22;26430;48.818;9.244;2024-02-26T13:56:31;14.30;99.90
2447;DHT22;26430;48.818;9.244;2024-02-26T13:58:57;14.30;99.90
2447;DHT22;26430;48.818;9.244;2024-02-26T14:01:23;14.30;99.90
2447;DHT22;26430;48.818;9.244;2024-02-26T14:03:49;14.30;99.90
2447;DHT22;26430;48.818;9.244;2024-02-26T14:06:15;14.30;99.90
2447;DHT22;26430;48.818;9.244;2024-02-26T14:08:40;14.30;99.90
2447;DHT22;26430;48.818;9.244;2024-02-26T14:11:06;14.40;99.90
2447;DHT22;26430;48.818;9.244;2024-02-26T14:13:31;14.30;99.90
2447;DHT22;26430;48.818;9.244;2024-02-26T14:15:57;14.30;99.90
2447;DHT22;26430;48.818;9.244;2024-02-26T14:18:23;14.40;99.90
2447;DHT22;26430;48.818;9.244;2024-02-26T14:20:48;14.40;99.90
2447;DHT22;26430;48.818;9.244;2024-02-26T14:23:14;14.40;99.90
2447;DHT22;26430;48.818;9.244;2024-02-26T14:25:40;14.40;99.90
2447;DHT22;26430;48.818;9.244;2024-02-26T14:28:05;14.40;99.90
2447;DHT22;26430;48.818;9.244;2024-02-26T14:30:31;14.40;99.90
2447;DHT22;26430;48.818;9.244;2024-02-26T14:32:58;14.40;99.90
2447;DHT22;26430;48.818;9.244;2024-02-26T14:35:23;14.40;99.90
2447;DHT22;26430;48.818;9.244;2024-02-26T14:37:49;14.40;99.90
2447;DHT22;26430;48.818;9.244;2024-02-26T14:40:16;14.40;99.90
2447;DHT22;26430;48.818;9.244;2024-02-26T14:42:41;14.50;99.90
2447;DHT22;26430;48.818;9.244;2024-02-26T14:45:07;14.50;99.90
2447;DHT22;26430;48.818;9.244;2024-02-26T14:47:37;14.50;99.90
2447;DHT22;26430;48.818;9.244;2024-02-26T14:50:04;14.40;99.90
2447;DHT22;26430;48.818;9.244;2024-02-26T14:52:29;14.50;99.90
2447;DHT22;26430;48.818;9.244;2024-02-26T14:54:55;14.50;99.90
2447;DHT22;26430;48.818;9.244;2024-02-26T14:57:21;14.50;99.90
2447;DHT22;26430;48.818;9.244;2024-02-26T14:59:46;14.50;99.90
2447;DHT22;26430;48.818;9.244;2024-02-26T15:02:14;14.50;99.90
2447;DHT22;26430;48.818;9.244;2024-02-26T15:04:39;14.50;99.90
2447;DHT22;26430;48.818;9.244;2024-02-26T15:07:05;14.50;99.90
2447;DHT22;26430;48.818;9.244;2024-02-26T15:09:31;14.50;99.90
2447;DHT22;26430;48.818;9.244;2024-02-26T15:11:56;14.50;99.90
2447;DHT22;26430;48.818;9.244;2024-02-26T15:14:23;14.50;99.90
2447;DHT22;26430;48.818;9.244;2024-02-26T15:16:49;14.60;99.90
2447;DHT22;26430;48.818;9.244;2024-02-26T15:19:14;14.60;99.90
2447;DHT22;26430;48.818;9.244;2024-02-26T15:21:44;14.60;99.90
2447;DHT22;26430;48.818;9.244;2024-02-26T15:24:10;14.50;99.90
2447;DHT22;26430;48.818;9.244;2024-02-26T15:26:41;14.50;99.90
2447;DHT22;26430;48.818;9.244;2024-02-26T15:29:07;14.60;99.90
2447;DHT22;26430;48.818;9.244;2024-02-26T15:31:36;14.50;99.90
2447;DHT22;26430;48.818;9.244;2024-02-26T15:34:02;14.60;99.90
2447;DHT22;26430;48.818;9.244;2024-02-26T15:36:28;14.60;99.90
2447;DHT22;26430;48.818;9.244;2024-02-26T15:38:54;14.50;99.90
2447;DHT22;26430;48.818;9.244;2024-02-26T15:41:19;14.50;99.90
2447;DHT22;26430;48.818;9.244;2024-02-26T15:43:45;14.50;99.90
2447;DHT22;26430;48.818;9.244;2024-02-26T15:46:10;14.50;99.90
2447;DHT22;26430;48.818;9.244;2024-02-26T15:48:37;14.50;99.90
2447;DHT22;26430;48.818;9.244;2024-02-26T15:51:03;14.50;99.90
2447;DHT22;26430;48.818;9.244;2024-02-26T15:53:28;14.50;99.90